الصفحة الرئيسية
METAR-TAF:

METAR-TAF

مطار :

مطار كريستيانو رونالدو

فونشال, جزر ماديرا, البرتغال

دائرة عرض: 32-41-52N, خط طول: 016-46-28W, ارتفاع: 59 متر

مراقبة الطقس الحالي

تاريخ ووقت الإصدار 28 دقيقة قبل الساعة 22:00UTC
ريح 7 عقدة من الشمال, الاتجاه يتراوح بين الشمال الغربي و الشمال الشرقي
درجة الحرارة 17°درجة مئوية
الرطوبة 63%
ضغط 1016 hPa
الرؤية 10 كم أو أكثر
غيوم متفرقة على ارتفاع 1600 قدم

METAR: LPMA 232200Z 01007KT 320V040 9999 SCT016 17/10 Q1016

زمن: 22:28 (22:28 UTC)

توقعات

تاريخ ووقت الإصدار 5ساعات و 28 دقيقة قبل الساعة 17:00UTC
التوقعات صالحة من23 الساعة 18 UTC إلى 24 الساعة 18 UTC
ريح 15 عقدة من الشمال
الرؤية 10 كم أو أكثر
غيوم متفرقة على ارتفاع 1600 قدم
نظرية الاحتمالات 30% :
مؤقت
من 23 الساعة 18 UTC إلى 23 الساعة 24 UTC
ريح 15 عقدة من الشمال/الشمال الشرقي تتزايد حتى 25 عقدة

TAF: LPMA 231700Z 2318/2418 01015KT 9999 SCT016 PROB30 TEMPO 2318/2324 02015G25KT

أرصاد الطقس والتوقعات من أكثر من 4000 مطار (تقارير الطقس للمطار METAR والتنبؤ بالطقس بالمطارTAF).

المحطات المتاحة هي النقط الصفراء والحمراء على الخريطة.

حرك المؤشر فوق النقطة لمعرفة اسم المحطة.

ثم انقر لمعرفة أرصاد وتوقعات الطقس.

لتغيير الخارطة: اضغط على الأزرار الخضراء مع رمز الصليب الأسود للتكبير. على الزر الأخضر مع شرطة للتصغير، أو على الأسهم الخضراء للخرائط المجاورة.


METAR-TAF: